Time;durP1;ratioP1;P1;durP2;ratioP2;P2;SDS_P1;SDS_P2;PMS_P1;PMS_P2;Temp;Humidity;BMP_temperature;BMP_pressure;BME280_temperature;BME280_humidity;BME280_pressure;Samples;Min_cycle;Max_cycle;Signal;HPM_P1;HPM_P2
2022/01/12 00:00:57;;;;;;;17.83;6.95;;;-1.20;99.90;;;;;;4960324;28;20201;-87
2022/01/12 00:03:23;;;;;;;10.85;7.13;;;-1.20;99.90;;;;;;4964521;28;20199;-88
2022/01/12 00:05:49;;;;;;;9.15;6.63;;;-1.10;99.90;;;;;;4955458;28;20184;-86
2022/01/12 00:08:15;;;;;;;11.10;7.37;;;;;;;;;;4972161;28;20286;-87
2022/01/12 00:10:41;;;;;;;13.90;7.03;;;-0.70;99.90;;;;;;4961553;28;20513;-87
2022/01/12 00:13:07;;;;;;;9.83;6.10;;;;;;;;;;4961950;28;20432;-87
2022/01/12 00:15:33;;;;;;;8.70;5.63;;;;;;;;;;4953167;28;20478;-87
2022/01/12 00:17:58;;;;;;;9.50;6.70;;;;;;;;;;4953168;28;20468;-87
2022/01/12 00:20:24;;;;;;;11.17;7.30;;;;;;;;;;4967277;28;20470;-87
2022/01/12 00:22:52;;;;;;;9.30;5.87;;;;;;;;;;4969717;28;20440;-86
2022/01/12 00:33:15;;;;;;;10.60;6.90;;;-0.40;99.90;;;;;;4947273;28;20322;-87
2022/01/12 00:35:45;;;;;;;8.85;5.35;;;-0.20;99.90;;;;;;4968208;28;20200;-87
2022/01/12 00:38:12;;;;;;;14.23;6.20;;;-0.20;99.90;;;;;;4951523;28;20208;-86
2022/01/12 00:40:40;;;;;;;10.48;5.88;;;-0.20;99.90;;;;;;4952244;28;20187;-87
2022/01/12 00:43:06;;;;;;;11.02;6.53;;;-0.10;99.90;;;;;;4951782;28;20188;-86
2022/01/12 00:45:37;;;;;;;13.20;5.50;;;-0.10;99.90;;;;;;4950604;28;20196;-86
2022/01/12 00:48:03;;;;;;;10.30;5.85;;;-0.10;99.90;;;;;;4952563;28;20208;-87
2022/01/12 00:50:29;;;;;;;10.75;6.38;;;-0.10;99.90;;;;;;4960952;28;20180;-88
2022/01/12 00:52:55;;;;;;;9.90;6.10;;;0.00;99.90;;;;;;4958828;28;20187;-87
2022/01/12 00:55:21;;;;;;;8.30;5.10;;;0.10;99.90;;;;;;4956018;28;20211;-88
2022/01/12 00:57:47;;;;;;;11.43;5.78;;;0.00;99.90;;;;;;4972874;28;20292;-88
2022/01/12 01:00:13;;;;;;;7.87;5.07;;;;;;;;;;4955631;28;20259;-86
2022/01/12 01:02:39;;;;;;;10.70;6.93;;;0.00;99.90;;;;;;4961504;28;20434;-86
2022/01/12 01:05:05;;;;;;;10.87;5.77;;;0.40;99.90;;;;;;4956351;28;20188;-86
2022/01/12 01:07:31;;;;;;;7.30;5.20;;;;;;;;;;4957390;28;20300;-87
2022/01/12 01:10:05;;;;;;;11.70;6.07;;;0.00;99.90;;;;;;4973407;28;20279;-86
2022/01/12 01:12:33;;;;;;;12.85;7.25;;;0.00;99.90;;;;;;4963613;28;20463;-88
2022/01/12 01:15:04;;;;;;;10.18;6.70;;;-0.10;99.90;;;;;;4966371;28;20199;-87
2022/01/12 01:25:37;;;;;;;20.92;6.65;;;-0.30;99.90;;;;;;4956443;28;20198;-87
2022/01/12 01:28:04;;;;;;;12.73;6.10;;;-0.60;99.90;;;;;;4956394;28;20298;-87
2022/01/12 01:30:31;;;;;;;15.15;7.72;;;;;;;;;;4971061;28;20196;-87
2022/01/12 01:33:04;;;;;;;13.38;7.60;;;-0.90;99.90;;;;;;4967413;28;21164;-87
2022/01/12 01:35:31;;;;;;;9.43;6.00;;;-1.10;99.90;;;;;;4970187;28;20342;-87
2022/01/12 01:37:59;;;;;;;15.43;7.75;;;;;;;;;;4967132;28;20200;-88
2022/01/12 01:40:25;;;;;;;13.88;9.20;;;-1.10;99.90;;;;;;4951220;28;20187;-86
2022/01/12 01:43:14;;;;;;;15.33;7.83;;;-1.30;99.90;;;;;;4956691;28;20177;-88
2022/01/12 01:53:53;;;;;;;15.32;8.13;;;-1.30;99.90;;;;;;4956335;28;20555;-87
2022/01/12 01:56:19;;;;;;;20.20;9.07;;;-1.30;99.90;;;;;;4954489;28;20208;-87
2022/01/12 01:58:46;;;;;;;14.13;8.80;;;-1.20;99.90;;;;;;4954490;28;20326;-87
2022/01/12 02:01:12;;;;;;;16.67;8.90;;;;;;;;;;4962309;28;20191;-87
2022/01/12 02:03:39;;;;;;;13.90;9.60;;;-1.10;99.90;;;;;;4969250;28;21143;-88
2022/01/12 02:06:07;;;;;;;19.98;9.82;;;-1.10;99.90;;;;;;4955282;28;20543;-88
2022/01/12 02:08:32;;;;;;;18.58;8.73;;;-1.20;99.90;;;;;;4951655;28;20207;-86
2022/01/12 02:10:59;;;;;;;15.63;8.53;;;-1.20;99.90;;;;;;4957302;28;20196;-87
2022/01/12 02:13:25;;;;;;;16.25;9.30;;;-1.20;99.90;;;;;;4966018;28;20184;-86
2022/01/12 02:15:52;;;;;;;15.00;8.77;;;;;;;;;;4958053;28;20196;-88
2022/01/12 02:18:36;;;;;;;17.05;8.35;;;-1.20;99.90;;;;;;4956293;28;20207;-87
2022/01/12 02:40:22;;;;;;;15.52;7.47;;;-1.90;99.90;;;;;;4955115;28;20230;-87
2022/01/12 02:42:58;;;;;;;16.07;7.40;;;;;;;;;;4962752;28;20180;-86
2022/01/12 02:53:42;;;;;;;13.63;7.20;;;-1.90;99.90;;;;;;4956344;28;20281;-86
2022/01/12 02:56:13;;;;;;;13.32;7.40;;;-1.80;99.90;;;;;;4971441;28;20893;-87
2022/01/12 02:58:39;;;;;;;13.52;7.10;;;-1.70;99.90;;;;;;4955395;28;20215;-87
2022/01/12 03:03:53;;;;;;;11.25;6.68;;;-1.90;99.90;;;;;;4955260;28;20188;-87
2022/01/12 03:06:23;;;;;;;16.38;7.35;;;-1.90;99.90;;;;;;4958288;28;20832;-86
2022/01/12 03:08:49;;;;;;;12.70;7.95;;;-2.00;99.90;;;;;;4953337;28;20203;-87
2022/01/12 03:11:18;;;;;;;12.35;7.90;;;-2.00;99.90;;;;;;4962791;28;20184;-87
2022/01/12 03:13:44;;;;;;;14.13;7.20;;;-2.10;99.90;;;;;;4958868;28;20223;-86
2022/01/12 03:16:15;;;;;;;12.75;7.47;;;-2.10;99.90;;;;;;4962255;28;20212;-87
2022/01/12 03:18:45;;;;;;;13.45;7.45;;;-2.00;99.90;;;;;;4956584;28;20196;-86
2022/01/12 03:21:12;;;;;;;10.30;6.40;;;-2.00;99.90;;;;;;4981107;28;20201;-87
2022/01/12 03:23:38;;;;;;;11.68;7.40;;;-2.00;99.90;;;;;;4961962;28;22175;-87
2022/01/12 03:26:06;;;;;;;12.07;6.30;;;-2.10;99.90;;;;;;4968857;28;20188;-87
2022/01/12 03:28:32;;;;;;;11.63;6.43;;;-2.10;99.90;;;;;;4973394;28;20204;-86
2022/01/12 03:31:07;;;;;;;12.20;7.05;;;-2.30;99.90;;;;;;4971793;28;20190;-86
2022/01/12 03:38:48;;;;;;;11.27;7.10;;;;;;;;;;4982598;28;20219;-86
2022/01/12 03:41:13;;;;;;;19.03;7.97;;;-2.50;99.90;;;;;;4987581;28;20251;-87
2022/01/12 03:43:39;;;;;;;12.20;7.57;;;-2.50;99.90;;;;;;4969730;28;20489;-87
2022/01/12 03:46:05;;;;;;;12.73;6.65;;;-2.40;99.90;;;;;;4961294;28;20196;-88
2022/01/12 03:48:31;;;;;;;14.05;7.20;;;-2.40;99.90;;;;;;4956775;28;20207;-88
2022/01/12 03:50:57;;;;;;;12.40;7.23;;;-2.40;99.90;;;;;;4966794;28;20280;-86
2022/01/12 03:53:23;;;;;;;10.67;6.63;;;-2.40;99.90;;;;;;4979247;28;20192;-87
2022/01/12 03:55:49;;;;;;;11.15;6.05;;;-1.10;99.90;;;;;;4955283;28;20972;-87
2022/01/12 03:58:14;;;;;;;17.17;8.07;;;-2.40;99.90;;;;;;4952089;28;20245;-87
2022/01/12 04:00:40;;;;;;;10.40;5.87;;;;;;;;;;4953405;28;20196;-88
2022/01/12 04:03:07;;;;;;;16.03;7.73;;;;;;;;;;4956244;28;20216;-87
2022/01/12 04:08:19;;;;;;;13.20;7.07;;;-2.80;99.90;;;;;;4972375;28;20212;-87
2022/01/12 04:10:53;;;;;;;12.60;6.85;;;-2.80;99.90;;;;;;4968481;28;20194;-88
2022/01/12 04:13:23;;;;;;;11.45;6.32;;;-2.90;99.90;;;;;;4962258;28;20690;-87
2022/01/12 04:15:52;;;;;;;16.05;8.63;;;-3.00;99.90;;;;;;4967377;28;20209;-87
2022/01/12 04:18:18;;;;;;;16.83;9.02;;;-2.90;99.90;;;;;;4952209;28;20212;-87
2022/01/12 04:20:49;;;;;;;12.97;7.80;;;;;;;;;;4953103;28;20179;-86
2022/01/12 04:23:17;;;;;;;15.20;8.45;;;-2.80;99.90;;;;;;4950499;28;20177;-88
2022/01/12 04:25:43;;;;;;;13.15;7.53;;;;;;;;;;4952710;28;20176;-87
2022/01/12 04:28:08;;;;;;;15.70;8.63;;;-2.80;99.90;;;;;;4967638;28;20218;-87
2022/01/12 04:30:34;;;;;;;16.23;8.37;;;;;;;;;;4955819;28;20196;-87
2022/01/12 04:32:59;;;;;;;12.55;7.60;;;-2.70;99.90;;;;;;4967228;28;20274;-86
2022/01/12 04:35:30;;;;;;;13.27;6.80;;;-2.80;99.90;;;;;;4947088;28;20264;-85
2022/01/12 04:37:56;;;;;;;15.73;8.00;;;;;;;;;;4948981;28;20265;-85
2022/01/12 04:40:22;;;;;;;9.75;6.53;;;-2.90;99.90;;;;;;4952462;28;20653;-84
2022/01/12 04:42:47;;;;;;;11.57;6.37;;;-2.90;99.90;;;;;;4952339;28;20196;-87
2022/01/12 04:45:58;;;;;;;14.00;7.70;;;-2.90;99.90;;;;;;4953680;28;20180;-87
2022/01/12 04:50:41;;;;;;;12.90;8.38;;;-2.90;99.90;;;;;;4952406;28;20187;-86
2022/01/12 04:53:07;;;;;;;11.48;6.80;;;-2.90;99.90;;;;;;4950768;28;20676;-86
2022/01/12 04:55:33;;;;;;;13.37;7.13;;;-2.80;99.90;;;;;;4951454;28;20223;-86
2022/01/12 04:57:59;;;;;;;13.05;8.18;;;-2.80;99.90;;;;;;4953715;28;21030;-86
2022/01/12 05:00:26;;;;;;;18.52;9.48;;;-2.80;99.90;;;;;;4947794;28;20206;-85
2022/01/12 05:13:43;;;;;;;12.77;7.55;;;-2.90;99.90;;;;;;4961771;28;22558;-85
2022/01/12 05:16:12;;;;;;;15.90;7.72;;;-2.90;99.90;;;;;;4957220;28;20212;-88
2022/01/12 05:18:39;;;;;;;15.70;8.45;;;-3.00;99.90;;;;;;4958394;28;20204;-86
2022/01/12 05:21:06;;;;;;;20.15;9.88;;;-3.00;99.90;;;;;;4955022;28;20199;-87
2022/01/12 05:23:31;;;;;;;18.00;9.70;;;-3.10;99.90;;;;;;4955405;28;22202;-87
2022/01/12 05:25:57;;;;;;;14.43;7.50;;;;;;;;;;4955473;28;20188;-87
2022/01/12 05:28:25;;;;;;;18.63;6.82;;;-3.00;99.90;;;;;;4958689;28;20227;-85
2022/01/12 05:30:51;;;;;;;21.10;8.45;;;-3.00;99.90;;;;;;4958682;28;20218;-87
2022/01/12 05:33:17;;;;;;;11.30;6.40;;;-3.00;99.90;;;;;;4952439;28;21123;-86
2022/01/12 05:35:43;;;;;;;15.68;8.65;;;-3.00;99.90;;;;;;4951685;28;20261;-86
2022/01/12 05:38:12;;;;;;;14.75;8.10;;;-3.20;99.90;;;;;;4949099;28;20228;-85
2022/01/12 05:40:39;;;;;;;12.98;7.60;;;-3.20;99.90;;;;;;4948710;28;20204;-87
2022/01/12 05:43:05;;;;;;;15.02;8.82;;;-3.20;99.90;;;;;;4949230;28;20199;-86
2022/01/12 05:45:33;;;;;;;15.63;8.50;;;;;;;;;;4948071;28;20188;-86
2022/01/12 05:50:27;;;;;;;18.70;10.43;;;-3.00;99.90;;;;;;4946338;28;20191;-87
2022/01/12 05:52:53;;;;;;;16.38;8.27;;;;;;;;;;4945703;28;20194;-86
2022/01/12 05:55:19;;;;;;;16.63;9.23;;;;;;;;;;4961522;28;20517;-86
2022/01/12 05:57:45;;;;;;;16.75;10.05;;;;;;;;;;4949683;28;20435;-87
2022/01/12 06:00:14;;;;;;;18.95;9.25;;;-2.70;99.90;;;;;;4966857;28;20192;-85
2022/01/12 06:02:40;;;;;;;18.02;10.55;;;-2.70;99.90;;;;;;4952755;28;20176;-88
2022/01/12 06:05:07;;;;;;;18.92;8.57;;;-2.70;99.90;;;;;;4958247;28;20179;-87
2022/01/12 06:07:33;;;;;;;18.42;9.00;;;;;;;;;;4960158;28;20195;-84
2022/01/12 06:09:59;;;;;;;13.93;7.70;;;-3.10;99.90;;;;;;4948173;28;20514;-89
2022/01/12 06:12:25;;;;;;;20.10;10.13;;;-2.40;99.90;;;;;;4954054;28;20556;-86
2022/01/12 06:14:51;;;;;;;12.80;8.63;;;-3.00;99.90;;;;;;4969032;28;20470;-88
2022/01/12 06:17:16;;;;;;;17.53;8.13;;;-3.00;99.90;;;;;;4947551;28;20451;-86
2022/01/12 06:19:42;;;;;;;12.40;7.77;;;;;;;;;;4952609;28;20446;-85
2022/01/12 06:22:08;;;;;;;9.27;6.00;;;;;;;;;;4966311;28;20893;-85
2022/01/12 06:24:34;;;;;;;19.23;9.27;;;-3.70;99.90;;;;;;4969119;28;20470;-85
2022/01/12 06:27:00;;;;;;;13.53;8.63;;;-3.10;99.90;;;;;;4955268;28;20467;-87
2022/01/12 06:29:39;;;;;;;28.30;12.63;;;-3.10;99.90;;;;;;4968215;28;20813;-85
2022/01/12 06:32:05;;;;;;;20.95;9.55;;;-3.00;99.90;;;;;;4951475;28;20756;-85
2022/01/12 06:34:31;;;;;;;13.07;8.18;;;-2.00;99.90;;;;;;4951876;28;20208;-85
2022/01/12 06:36:57;;;;;;;20.42;9.23;;;-2.80;99.90;;;;;;4955296;28;20303;-86
2022/01/12 06:39:23;;;;;;;18.23;8.87;;;;;;;;;;4956549;28;20298;-86
2022/01/12 06:41:52;;;;;;;15.90;9.07;;;-2.60;99.90;;;;;;4951171;28;20184;-86
2022/01/12 06:44:20;;;;;;;21.40;11.93;;;-2.40;99.90;;;;;;4950979;28;20181;-86
2022/01/12 06:46:48;;;;;;;16.25;10.32;;;0.40;99.90;;;;;;4954570;28;20215;-86
2022/01/12 06:49:16;;;;;;;17.13;9.75;;;;;;;;;;4953899;28;20191;-86
2022/01/12 06:51:43;;;;;;;20.70;11.70;;;-2.20;99.90;;;;;;4966980;28;20619;-85
2022/01/12 06:54:10;;;;;;;21.48;13.10;;;-2.20;99.90;;;;;;4950738;28;20194;-86
2022/01/12 06:56:35;;;;;;;24.58;12.80;;;-1.20;99.90;;;;;;4947677;28;20199;-84
2022/01/12 06:59:02;;;;;;;18.73;10.17;;;-2.20;99.90;;;;;;4948035;28;20569;-86
2022/01/12 07:01:28;;;;;;;16.88;10.80;;;-2.10;99.90;;;;;;4954094;28;20281;-86
2022/01/12 07:03:53;;;;;;;16.07;7.50;;;-0.60;99.90;;;;;;4963788;28;20184;-84
2022/01/12 07:06:19;;;;;;;13.07;8.73;;;;;;;;;;4957779;28;20212;-85
2022/01/12 07:08:45;;;;;;;16.43;9.47;;;;;;;;;;4963577;28;20218;-86
2022/01/12 07:11:11;;;;;;;17.92;8.73;;;-1.70;99.90;;;;;;4954592;28;20928;-87
2022/01/12 07:13:37;;;;;;;12.63;8.17;;;;;;;;;;4956607;28;20191;-87
2022/01/12 07:16:03;;;;;;;16.60;8.32;;;-1.50;99.90;;;;;;4967446;28;20208;-87
2022/01/12 07:18:29;;;;;;;27.23;14.10;;;-1.50;99.90;;;;;;4958746;28;20293;-86
2022/01/12 07:20:56;;;;;;;24.55;14.07;;;-1.40;99.90;;;;;;4960032;28;21637;-86
2022/01/12 07:23:23;;;;;;;21.00;10.30;;;-1.40;99.90;;;;;;4956178;28;20301;-86
2022/01/12 07:25:49;;;;;;;25.48;14.05;;;-1.30;99.90;;;;;;4966531;28;20179;-86
2022/01/12 07:28:15;;;;;;;19.30;10.03;;;;;;;;;;4960151;28;20268;-87
2022/01/12 07:30:40;;;;;;;27.33;14.07;;;-1.10;99.90;;;;;;4959354;28;20547;-86
2022/01/12 07:33:06;;;;;;;39.33;16.83;;;-0.90;99.90;;;;;;4950627;28;20451;-88
2022/01/12 07:35:32;;;;;;;34.23;15.40;;;;;;;;;;4952662;28;20204;-86
2022/01/12 07:37:58;;;;;;;23.90;13.53;;;;;;;;;;4945682;28;20200;-87
2022/01/12 07:40:24;;;;;;;25.57;14.37;;;;;;;;;;4962575;28;20452;-86
2022/01/12 07:42:51;;;;;;;34.95;18.42;;;-0.80;99.90;;;;;;4944494;28;20480;-88
2022/01/12 07:45:17;;;;;;;22.00;13.05;;;-0.70;99.90;;;;;;4956049;28;20215;-88
2022/01/12 07:47:43;;;;;;;27.92;14.30;;;-0.70;99.90;;;;;;4951999;28;20204;-88
2022/01/12 07:50:10;;;;;;;17.50;12.07;;;-0.80;99.90;;;;;;4960451;28;20199;-87
2022/01/12 07:52:36;;;;;;;21.65;12.60;;;-0.80;99.90;;;;;;4952585;28;20180;-86
2022/01/12 07:55:03;;;;;;;21.90;12.63;;;-0.70;99.90;;;;;;4947460;28;20437;-87
2022/01/12 07:57:29;;;;;;;21.92;11.63;;;-0.60;99.90;;;;;;4954569;28;20521;-87
2022/01/12 07:59:55;;;;;;;24.30;13.37;;;-0.40;99.90;;;;;;4952984;28;20192;-87
2022/01/12 08:02:21;;;;;;;27.50;15.10;;;-0.30;99.90;;;;;;4959484;28;20451;-88
2022/01/12 08:04:47;;;;;;;21.70;14.30;;;-0.10;99.90;;;;;;4954560;28;20443;-87
2022/01/12 08:07:12;;;;;;;28.50;14.57;;;-0.10;99.90;;;;;;4951718;28;20211;-87
2022/01/12 08:09:39;;;;;;;24.73;11.10;;;-0.10;99.90;;;;;;4960352;28;20194;-87
2022/01/12 08:12:08;;;;;;;22.05;11.32;;;-0.20;99.90;;;;;;4964988;28;20192;-87
2022/01/12 08:14:34;;;;;;;18.90;11.93;;;-0.40;99.90;;;;;;4953016;28;20191;-86
2022/01/12 08:17:01;;;;;;;23.70;11.60;;;-0.40;99.90;;;;;;4958040;28;20207;-88
2022/01/12 08:19:28;;;;;;;15.73;8.25;;;-0.20;99.90;;;;;;4951023;28;20289;-86
2022/01/12 08:21:54;;;;;;;17.20;10.55;;;-0.20;99.90;;;;;;4952614;28;20294;-87
2022/01/12 08:24:20;;;;;;;15.70;8.02;;;-0.30;99.90;;;;;;4963833;28;20196;-86
2022/01/12 08:26:46;;;;;;;12.53;8.70;;;;;;;;;;4951084;28;20248;-86
2022/01/12 08:29:15;;;;;;;14.55;8.60;;;-0.10;99.90;;;;;;4955359;28;20184;-86
2022/01/12 08:31:41;;;;;;;8.95;5.38;;;0.10;99.90;;;;;;4981261;28;20192;-87
2022/01/12 08:34:08;;;;;;;13.35;9.00;;;;;;;;;;4956266;28;21140;-86
2022/01/12 08:36:34;;;;;;;15.73;8.98;;;;;;;;;;4974702;28;20216;-87
2022/01/12 08:39:02;;;;;;;18.33;8.70;;;0.90;99.90;;;;;;4950641;28;20294;-86
2022/01/12 08:41:27;;;;;;;12.35;7.88;;;1.00;99.90;;;;;;4955614;28;20929;-86
2022/01/12 08:43:53;;;;;;;8.97;5.90;;;1.10;99.90;;;;;;4945364;28;20188;-87
2022/01/12 08:46:19;;;;;;;14.27;8.10;;;;;;;;;;4951056;28;20245;-88
2022/01/12 08:48:44;;;;;;;14.40;7.60;;;0.90;99.90;;;;;;4968965;28;20226;-88
2022/01/12 08:51:10;;;;;;;21.60;11.07;;;0.70;99.90;;;;;;4949916;28;21028;-85
2022/01/12 08:53:36;;;;;;;19.23;9.80;;;;;;;;;;4952113;28;20191;-86
2022/01/12 08:56:02;;;;;;;14.63;10.27;;;1.00;99.90;;;;;;4948745;28;20215;-88
2022/01/12 08:58:27;;;;;;;18.00;9.60;;;1.30;99.90;;;;;;4951195;28;20200;-87
2022/01/12 09:00:55;;;;;;;20.73;11.33;;;;;;;;;;4950673;28;20208;-89
2022/01/12 09:03:22;;;;;;;19.70;10.23;;;2.30;99.90;;;;;;4969426;28;20181;-87
2022/01/12 09:05:49;;;;;;;13.25;9.90;;;2.50;99.90;;;;;;4956644;28;20176;-88
2022/01/12 09:08:15;;;;;;;19.10;8.95;;;2.60;99.90;;;;;;4958285;28;20201;-85
2022/01/12 09:10:41;;;;;;;16.57;9.50;;;;;;;;;;4949319;28;20184;-86
2022/01/12 09:13:06;;;;;;;18.00;10.50;;;2.90;99.90;;;;;;4968507;28;20196;-89
2022/01/12 09:15:32;;;;;;;15.73;8.80;;;3.00;99.90;;;;;;4967859;28;20464;-86
2022/01/12 09:17:58;;;;;;;17.20;10.13;;;3.10;99.90;;;;;;4958524;28;20205;-88
2022/01/12 09:20:24;;;;;;;17.67;10.03;;;3.30;99.90;;;;;;4958192;28;20184;-87
2022/01/12 09:22:50;;;;;;;20.17;10.35;;;3.30;99.90;;;;;;4953769;28;20187;-88
2022/01/12 09:25:16;;;;;;;17.20;11.37;;;3.10;99.90;;;;;;4963164;28;20697;-88
2022/01/12 09:27:42;;;;;;;17.13;9.43;;;3.50;99.90;;;;;;4955120;28;20549;-87
2022/01/12 09:30:10;;;;;;;15.13;9.77;;;4.10;99.90;;;;;;4954832;28;20454;-87
2022/01/12 09:32:36;;;;;;;13.52;9.27;;;5.10;99.90;;;;;;4951401;28;20202;-86
2022/01/12 09:35:03;;;;;;;20.23;11.83;;;5.80;99.90;;;;;;4954467;28;20675;-87
2022/01/12 09:37:29;;;;;;;20.67;11.18;;;;;;;;;;4962282;28;20460;-86
2022/01/12 09:39:55;;;;;;;13.52;8.50;;;6.80;99.90;;;;;;4959727;28;21062;-87
2022/01/12 09:42:20;;;;;;;14.50;8.73;;;6.80;99.90;;;;;;4966790;28;20188;-87
2022/01/12 09:44:47;;;;;;;14.40;9.43;;;6.20;99.90;;;;;;4962017;28;20183;-88
2022/01/12 09:47:14;;;;;;;13.80;9.98;;;6.20;99.90;;;;;;4961709;28;20192;-87
2022/01/12 09:49:45;;;;;;;18.58;9.20;;;5.40;99.90;;;;;;4969838;28;20180;-88
2022/01/12 09:52:12;;;;;;;13.18;9.18;;;4.60;99.90;;;;;;4954721;28;20185;-87
2022/01/12 09:54:38;;;;;;;16.40;10.32;;;3.90;99.90;;;;;;4948520;28;20200;-87
2022/01/12 09:57:04;;;;;;;22.13;13.13;;;3.30;99.90;;;;;;4963403;28;20974;-87
2022/01/12 09:59:30;;;;;;;24.05;12.52;;;2.90;99.90;;;;;;4950761;28;20184;-88
2022/01/12 10:01:56;;;;;;;18.58;12.32;;;2.50;99.90;;;;;;4954717;28;20211;-87
2022/01/12 10:04:32;;;;;;;16.13;11.00;;;2.30;99.90;;;;;;4956064;28;20180;-87
2022/01/12 10:06:59;;;;;;;13.93;9.25;;;2.20;99.90;;;;;;4980736;28;20499;-88
2022/01/12 10:09:38;;;;;;;18.15;8.38;;;2.00;99.90;;;;;;4957184;28;20244;-87
2022/01/12 10:12:10;;;;;;;13.18;9.65;;;1.80;99.90;;;;;;4938448;28;20184;-86
2022/01/12 10:14:50;;;;;;;21.88;12.35;;;1.70;99.90;;;;;;4941639;28;20185;-87
2022/01/12 10:17:17;;;;;;;21.25;10.43;;;1.80;99.90;;;;;;4942707;28;20215;-88
2022/01/12 10:19:43;;;;;;;19.17;10.48;;;1.80;99.90;;;;;;4941625;28;20208;-87
2022/01/12 10:22:14;;;;;;;19.07;10.30;;;1.90;99.90;;;;;;4965014;22;20318;-87
2022/01/12 10:24:42;;;;;;;17.15;11.02;;;2.00;99.90;;;;;;4976598;28;20207;-87
2022/01/12 10:27:17;;;;;;;16.95;9.90;;;2.00;99.90;;;;;;4972440;28;20183;-87
2022/01/12 10:29:44;;;;;;;18.35;9.68;;;2.10;99.90;;;;;;4973272;28;20183;-87
2022/01/12 10:32:10;;;;;;;18.05;10.52;;;2.10;99.90;;;;;;4971861;28;20275;-87
2022/01/12 10:34:37;;;;;;;21.58;12.77;;;2.20;99.90;;;;;;4972645;28;20555;-87
2022/01/12 10:37:07;;;;;;;21.58;12.50;;;2.20;99.90;;;;;;4972022;28;20244;-87
2022/01/12 10:39:33;;;;;;;18.20;11.65;;;2.30;99.90;;;;;;4964816;28;20292;-87
2022/01/12 10:42:07;;;;;;;16.90;12.30;;;2.40;99.90;;;;;;4971002;28;20722;-87
2022/01/12 10:44:45;;;;;;;16.80;10.93;;;2.60;99.90;;;;;;4969459;28;20302;-87
2022/01/12 10:47:16;;;;;;;19.13;12.60;;;2.50;99.90;;;;;;4969874;28;20748;-87
2022/01/12 10:49:47;;;;;;;15.57;10.93;;;2.50;99.90;;;;;;4972033;28;20236;-86
2022/01/12 10:52:13;;;;;;;16.85;10.93;;;2.40;99.90;;;;;;4969393;28;20180;-87
2022/01/12 10:54:50;;;;;;;21.95;12.68;;;2.40;99.90;;;;;;4965912;28;20241;-87
2022/01/12 10:57:46;;;;;;;16.75;11.50;;;2.40;99.90;;;;;;4978624;28;20187;-87
2022/01/12 11:00:19;;;;;;;20.08;10.90;;;2.50;99.90;;;;;;4976384;28;21944;-87
2022/01/12 11:02:58;;;;;;;21.35;10.68;;;2.60;99.90;;;;;;4969023;28;20194;-87
2022/01/12 11:05:29;;;;;;;17.50;10.50;;;2.60;99.90;;;;;;4970086;28;20218;-87
2022/01/12 11:07:55;;;;;;;17.92;11.98;;;2.70;99.90;;;;;;4971024;28;20195;-87
2022/01/12 11:10:21;;;;;;;21.73;10.80;;;2.70;99.90;;;;;;4972043;28;20201;-86
2022/01/12 11:12:48;;;;;;;13.63;10.40;;;2.80;99.90;;;;;;4966508;28;20180;-87
2022/01/12 11:15:17;;;;;;;15.05;10.80;;;2.90;99.90;;;;;;4974385;28;20241;-87
2022/01/12 11:17:44;;;;;;;14.45;9.27;;;3.00;99.90;;;;;;4974700;28;20183;-86
2022/01/12 11:20:21;;;;;;;17.50;10.23;;;3.00;99.90;;;;;;4979990;28;20187;-86
2022/01/12 11:23:07;;;;;;;14.52;9.65;;;3.10;99.90;;;;;;4973348;28;20190;-87
2022/01/12 11:25:40;;;;;;;14.45;7.32;;;3.10;99.90;;;;;;4974844;28;20224;-81
2022/01/12 11:28:10;;;;;;;8.73;7.15;;;2.80;99.90;;;;;;4972337;28;20196;-81
2022/01/12 11:30:39;;;;;;;12.05;6.40;;;2.60;99.90;;;;;;4975854;28;20564;-81
2022/01/12 11:33:08;;;;;;;8.52;6.15;;;2.50;99.90;;;;;;4973262;28;20184;-81
2022/01/12 11:35:38;;;;;;;11.68;8.20;;;2.40;99.90;;;;;;4979825;28;20211;-81
2022/01/12 11:38:05;;;;;;;11.70;7.60;;;2.50;99.90;;;;;;4975389;28;20265;-82
2022/01/12 11:40:33;;;;;;;10.85;7.60;;;2.50;99.90;;;;;;4978860;28;20175;-81
2022/01/12 11:42:58;;;;;;;14.60;9.02;;;2.60;99.90;;;;;;4973310;28;22221;-81
2022/01/12 11:45:24;;;;;;;11.83;7.73;;;2.70;99.90;;;;;;4979511;28;20272;-81
2022/01/12 11:47:51;;;;;;;14.03;8.67;;;2.70;99.90;;;;;;4977309;28;20218;-81
2022/01/12 11:50:16;;;;;;;15.70;9.10;;;2.80;99.90;;;;;;4973869;28;20238;-81
2022/01/12 11:52:42;;;;;;;11.10;7.40;;;2.90;99.90;;;;;;4976318;28;20692;-82
2022/01/12 11:55:13;;;;;;;11.30;8.20;;;2.90;99.90;;;;;;4978307;28;20192;-81
2022/01/12 11:57:42;;;;;;;13.18;8.80;;;3.00;99.90;;;;;;4975627;28;20186;-81
2022/01/12 12:00:16;;;;;;;15.70;9.60;;;2.90;99.90;;;;;;4978336;28;20179;-82
2022/01/12 12:02:47;;;;;;;12.32;9.15;;;3.00;99.90;;;;;;4976683;28;20205;-81
2022/01/12 12:05:16;;;;;;;12.93;8.10;;;3.20;99.90;;;;;;4978464;28;20607;-81
2022/01/12 12:07:46;;;;;;;13.30;8.90;;;3.30;99.90;;;;;;4978326;28;20663;-82
2022/01/12 12:10:15;;;;;;;16.52;10.15;;;3.40;99.90;;;;;;4979687;28;20190;-81
2022/01/12 12:12:41;;;;;;;13.73;9.02;;;3.40;99.90;;;;;;4983386;28;20184;-81
2022/01/12 12:15:08;;;;;;;21.45;9.07;;;3.40;99.90;;;;;;4976908;28;20211;-81
2022/01/12 12:17:35;;;;;;;14.10;8.43;;;3.30;99.90;;;;;;4976142;28;20187;-82
2022/01/12 12:20:03;;;;;;;17.17;9.27;;;3.20;99.90;;;;;;4977616;28;20504;-81
2022/01/12 12:22:32;;;;;;;16.00;10.07;;;3.20;99.90;;;;;;4977951;28;20195;-81
2022/01/12 12:25:06;;;;;;;15.20;9.02;;;3.30;99.90;;;;;;4976064;28;20238;-80
2022/01/12 12:27:33;;;;;;;13.65;9.25;;;3.30;99.90;;;;;;4976971;28;20176;-81
2022/01/12 12:29:58;;;;;;;15.02;8.80;;;3.40;99.90;;;;;;4972261;28;20223;-81
2022/01/12 12:32:39;;;;;;;15.07;11.47;;;3.50;99.90;;;;;;4977290;28;20199;-81
2022/01/12 12:35:17;;;;;;;14.00;8.43;;;3.50;99.90;;;;;;4983307;28;20865;-81
2022/01/12 12:37:48;;;;;;;13.68;8.75;;;3.80;99.90;;;;;;4978209;28;20184;-81
2022/01/12 12:40:20;;;;;;;14.90;9.88;;;3.80;99.90;;;;;;4976977;28;20792;-81
2022/01/12 12:43:01;;;;;;;14.18;8.98;;;3.80;99.90;;;;;;4976707;28;20168;-80
2022/01/12 12:45:40;;;;;;;15.45;9.43;;;3.90;99.90;;;;;;4977865;28;20208;-80
2022/01/12 12:48:08;;;;;;;17.35;10.35;;;3.90;99.90;;;;;;4971499;28;20179;-80
2022/01/12 12:50:33;;;;;;;12.27;8.60;;;3.80;99.90;;;;;;4980776;28;20195;-80
2022/01/12 12:53:00;;;;;;;14.43;9.77;;;3.80;99.90;;;;;;4982659;28;20195;-80
2022/01/12 12:55:26;;;;;;;20.23;10.38;;;3.90;99.90;;;;;;4976965;28;20215;-80
2022/01/12 12:57:54;;;;;;;16.57;10.70;;;4.00;99.90;;;;;;4975227;28;20198;-80
2022/01/12 13:00:23;;;;;;;13.02;8.60;;;4.10;99.90;;;;;;4978208;28;20180;-80
2022/01/12 13:02:52;;;;;;;16.27;9.60;;;4.10;99.90;;;;;;4988538;28;20180;-80
2022/01/12 13:05:23;;;;;;;15.70;10.20;;;4.10;99.90;;;;;;4975662;28;20581;-80
2022/01/12 13:07:49;;;;;;;16.00;9.50;;;4.00;99.90;;;;;;4975862;28;20176;-80
2022/01/12 13:10:34;;;;;;;17.08;9.90;;;3.80;99.90;;;;;;4976535;28;20187;-80
2022/01/12 13:13:05;;;;;;;15.85;10.25;;;3.60;99.90;;;;;;4975973;28;20209;-80
2022/01/12 13:15:45;;;;;;;13.80;9.60;;;3.70;99.90;;;;;;4973598;28;20216;-80
2022/01/12 13:18:19;;;;;;;13.68;10.60;;;3.40;99.90;;;;;;4974942;28;20267;-80
2022/01/12 13:21:12;;;;;;;15.00;10.00;;;3.10;99.90;;;;;;4976037;28;20172;-80
2022/01/12 13:23:39;;;;;;;15.10;10.38;;;3.10;99.90;;;;;;4976472;28;20194;-80
2022/01/12 13:26:06;;;;;;;19.17;10.10;;;3.20;99.90;;;;;;4971358;28;20203;-81
2022/01/12 13:28:34;;;;;;;15.27;10.20;;;3.20;99.90;;;;;;4975059;28;20184;-80
2022/01/12 13:31:02;;;;;;;14.88;9.38;;;3.40;99.90;;;;;;4972741;28;20235;-80
2022/01/12 13:33:34;;;;;;;13.77;9.35;;;3.50;99.90;;;;;;4976211;28;20207;-81
2022/01/12 13:36:17;;;;;;;16.13;10.05;;;3.60;99.90;;;;;;4973570;28;21101;-80
2022/01/12 13:38:48;;;;;;;14.55;8.82;;;3.70;99.90;;;;;;4987468;28;20548;-80
2022/01/12 13:41:16;;;;;;;16.20;9.23;;;3.70;99.90;;;;;;4972362;28;20172;-80
2022/01/12 13:43:47;;;;;;;15.82;10.52;;;3.60;99.90;;;;;;4972023;28;20179;-80
2022/01/12 13:46:14;;;;;;;11.80;8.80;;;3.50;99.90;;;;;;4973555;28;20577;-81
2022/01/12 13:49:09;;;;;;;17.08;8.57;;;3.40;99.90;;;;;;4973365;28;20260;-81
2022/01/12 13:51:38;;;;;;;14.90;9.10;;;3.60;99.90;;;;;;4972810;28;20647;-81
2022/01/12 13:54:12;;;;;;;14.07;9.85;;;3.90;99.90;;;;;;4973579;28;20691;-80
2022/01/12 13:56:43;;;;;;;15.57;9.55;;;3.70;99.90;;;;;;4973804;28;20206;-81
2022/01/12 13:59:10;;;;;;;18.17;10.98;;;3.60;99.90;;;;;;4974161;28;20172;-80
2022/01/12 14:01:38;;;;;;;13.98;9.52;;;3.50;99.90;;;;;;4974422;28;20179;-80
2022/01/12 14:04:20;;;;;;;15.30;9.48;;;3.10;99.90;;;;;;4975386;28;20187;-80
2022/01/12 14:06:48;;;;;;;15.63;10.32;;;3.10;99.90;;;;;;4975638;28;20267;-80
2022/01/12 14:12:07;;;;;;;14.77;9.57;;;3.10;99.90;;;;;;4975533;28;20186;-80
2022/01/12 14:14:48;;;;;;;13.93;8.98;;;3.00;99.90;;;;;;4972960;28;20336;-80
2022/01/12 14:17:36;;;;;;;14.27;10.25;;;3.10;99.90;;;;;;4972055;28;20510;-80
2022/01/12 14:20:05;;;;;;;14.88;9.18;;;3.20;99.90;;;;;;4976423;28;20944;-80